Bocaiuva, Brazil
Current Conditions -  °F | °C
As of 4:00 PM on Thursday 18 Dec 2014 (Local Time) from SBMK Reporting Station
Broken Clouds Broken Clouds  
Wind Chill: 90°   Ceiling: 4500
Heat Index: 90°   Visibility: 6mi
Dew Point: 55°   Wind: 7mph
Humidity: 31%   Direction: 110°ESE
Pressure: 29.85"   Gusts: NA
Location:  17.11°S, 43.81°W
Report Text: SBMK 181800Z 11006KT 060V160 9999 BKN045 32/13 Q1011
Loading
Personal Weather Stations






























Interactive Weather Map New forecast layout! Learn more

10-Day Weather Forecast

Advertisements
Track Severe Weather on mobile